• Join FlightAware (Why Join?)
  • Login
  • US Flag 
10:16AM EDT


 

Airport Tracker/Info


-or-


 

Live Flight TrackerFlight Track Log ✈ THU202 ✈ 26-Apr-2013 ✈ CYTS - CYMO

Flight Track Log - Related Links

Times and Time Zones

All times are in EDT time to prevent confusion due to time zone crossing. See the THU202 flight status page for this flight to view local times or setup timezone preferences in your user account.

Time Position Orientation Groundspeed Altitude Reporting Facility
EDT Latitude Longitude Course Direction KTS MPH feet Rate Location/Type
10:03AM 48.9000 -81.4333 352° North 140 161 5,600  Level Toronto Center
10:04AM 48.9667 -81.4500 351° North 140 161 6,200 420 Climbing Toronto Center
10:05AM 49.0000 -81.4500 360° North 140 161 6,700 480 Climbing Toronto Center
10:06AM 49.0333 -81.4667 342° North 140 161 7,200 420 Climbing Toronto Center
10:07AM 49.0294 -81.4664 352° North  Level FlightAware Approximate
10:07AM 49.0833 -81.4833 348° North 140 161 7,600  Level Toronto Center
10:08AM 49.0757 -81.4769 352° North  Level FlightAware Approximate
10:08AM 49.1167 -81.4833 360° North 150 173 8,000  Level Toronto Center
10:09AM 49.1667 -81.4833 360° North 160 184 8,400 420 Climbing Toronto Center
10:10AM 49.2167 -81.5167 336° Northwest 150 173 8,900 300 Climbing Toronto Center
10:11AM 49.2500 -81.5167 360° North 150 173 9,100 60 Climbing Toronto Center
10:12AM 49.3000 -81.5167 360° North 160 184 9,100  Level Toronto Center
10:13AM 49.3333 -81.5500 327° Northwest 160 184 9,100  Level Toronto Center
10:14AM 49.3833 -81.5500 360° North 160 184 9,100  Level Toronto Center
10:15AM 49.4333 -81.5500 360° North 170 196 9,100  Level Toronto Center
10:16AM 49.4833 -81.5833 337° Northwest 170 196 9,100  Level Toronto Center
10:17AM 49.5333 -81.5833 360° North 170 196 9,100  Level Toronto Center
10:18AM 49.5667 -81.5833 360° North 170 196 9,100  Level Toronto Center
10:19AM 49.6167 -81.6167 337° Northwest 170 196 9,100  Level Toronto Center
10:20AM 49.6667 -81.6167 360° North 170 196 9,100  Level Toronto Center
10:21AM 49.7167 -81.6333 348° North 170 196 9,100  Level Toronto Center
10:22AM 49.7667 -81.6333 360° North 170 196 9,100  Level Toronto Center
10:23AM 49.8167 -81.6500 348° North 170 196 9,200  Climbing Toronto Center
10:24AM 49.8500 -81.6667 342° North 170 196 9,200  Level Toronto Center
10:25AM 49.9000 -81.6667 360° North 170 196 9,200  Level Toronto Center
10:26AM 49.9500 -81.6667 360° North 170 196 9,200  Level Toronto Center
10:27AM 50.0000 -81.7000 337° Northwest 170 196 9,200  Level Toronto Center
10:28AM 50.0333 -81.7000 360° North 170 196 9,200  Level Toronto Center
10:29AM 50.0833 -81.7000 360° North 170 196 9,200  Level Toronto Center
10:30AM 50.1333 -81.7333 337° Northwest 170 196 9,200  Level Toronto Center
10:31AM 50.1833 -81.7333 360° North 170 196 9,200  Level Toronto Center
10:32AM 50.2333 -81.7667 337° Northwest 180 207 9,200  Level Toronto Center
10:33AM 50.2833 -81.7667 360° North 180 207 9,200  Level Toronto Center
10:34AM 50.3333 -81.7667 360° North 180 207 9,200  Level Toronto Center
10:35AM 50.3833 -81.8000 337° Northwest 180 207 9,200  Level Toronto Center
10:36AM 50.4333 -81.8000 360° North 180 207 9,200  Level Toronto Center
10:37AM 50.4833 -81.8000 360° North 180 207 9,200  Level Toronto Center
10:38AM 50.5167 -81.8333 328° Northwest 180 207 9,200  Level Toronto Center
10:39AM 50.5667 -81.8333 360° North 180 207 9,200  Level Toronto Center
10:40AM 50.6167 -81.8333 360° North 180 207 9,200 -120 Level Toronto Center
10:41AM 50.6333 -81.8000 52° Northeast 180 207 9,100 -120 Descending Winnipeg Center
10:42AM 50.6667 -81.7833 18° North 180 207 9,100  Level Winnipeg Center
10:43AM 50.7167 -81.8167 337° Northwest 180 207 9,100 60 Level Winnipeg Center
10:43AM 50.7500 -81.8833 308° West 180 207 9,200  Climbing Toronto Center
10:44AM 50.7667 -81.8333 62° Northeast 180 207 9,100  Descending Winnipeg Center
10:44AM 50.8000 -81.9000 308° West 180 207 9,200  Climbing Toronto Center
10:45AM 50.8167 -81.8333 68° East 180 207 9,100  Descending Winnipeg Center
10:45AM 50.8500 -81.9000 308° West 180 207 9,200  Climbing Toronto Center
10:46AM 50.8667 -81.8500 62° Northeast 180 207 9,100  Descending Winnipeg Center
10:46AM 50.9000 -81.9167 308° West 180 207 9,200  Climbing Toronto Center
10:47AM 50.9167 -81.8667 62° Northeast 180 207 9,100  Descending Winnipeg Center
10:47AM 50.9500 -81.9333 308° West 180 207 9,200  Climbing Toronto Center
10:49AM 51.0500 -81.9500 354° North 180 207 9,200  Level Toronto Center
10:50AM 51.1000 -81.9667 348° North 180 207 9,200  Level Toronto Center
10:51AM 51.1500 -81.9667 360° North 180 207 9,200  Level Toronto Center
10:52AM 51.2000 -81.9833 348° North 180 207 9,200  Level Toronto Center
10:53AM 51.2500 -82.0000 348° North 180 207 9,200  Level Toronto Center
10:54AM 51.3000 -82.0000 360° North 180 207 9,200  Level Toronto Center
10:55AM 51.3500 -82.0167 348° North 180 207 9,200  Level Toronto Center
10:59AM 51.4139 -82.0332 351° North  Level FlightAware Approximate
11:06AM 51.7371 -82.1176 351° North  Level FlightAware Approximate
11:07AM 51.7833 -82.1290 351° North  Level FlightAware Approximate
11:08AM 51.8296 -82.1405 351° North  Level FlightAware Approximate
11:09AM 51.8758 -82.1519 351° North  Level FlightAware Approximate
11:10AM 51.9221 -82.1634 351° North  Level FlightAware Approximate
11:11AM 51.9683 -82.1750 351° North  Level FlightAware Approximate
11:12AM 52.0145 -82.1865 351° North  Level FlightAware Approximate
11:13AM 52.0608 -82.1981 351° North  Level FlightAware Approximate
11:14AM 52.1070 -82.2097 351° North  Level FlightAware Approximate
11:15AM 52.1532 -82.2213 351° North  Level FlightAware Approximate
11:16AM 52.1995 -82.2329 351° North  Level FlightAware Approximate
11:17AM 52.2457 -82.2446 351° North  Level FlightAware Approximate
11:18AM 52.2919 -82.2563 351° North  Level FlightAware Approximate
11:19AM 52.3381 -82.2680 351° North  Level FlightAware Approximate
11:20AM 52.3844 -82.2797 351° North  Level FlightAware Approximate
11:21AM 52.4306 -82.2915 351° North  Level FlightAware Approximate
11:22AM 52.4768 -82.3033 351° North  Level FlightAware Approximate
11:23AM 52.5230 -82.3151 351° North  Level FlightAware Approximate
11:24AM 52.5692 -82.3269 351° North  Level FlightAware Approximate
11:25AM 52.6155 -82.3388 351° North  Level FlightAware Approximate
11:26AM 52.6617 -82.3506 351° North  Level FlightAware Approximate
11:27AM 52.7079 -82.3625 351° North  Level FlightAware Approximate
11:28AM 52.7541 -82.3745 351° North  Level FlightAware Approximate
11:29AM 52.8004 -82.3865 351° North  Level FlightAware Approximate
11:30AM 52.8466 -82.3984 351° North  Level FlightAware Approximate
11:31AM 52.8928 -82.4105 351° North  Level FlightAware Approximate
11:32AM 52.8982 -82.3950 145° Southeast  Level FlightAware Approximate
11:33AM 52.8601 -82.3502 145° Southeast  Level FlightAware Approximate
11:34AM 52.8218 -82.3055 145° Southeast  Level FlightAware Approximate
11:35AM 52.7836 -82.2609 145° Southeast  Level FlightAware Approximate
11:36AM 52.7454 -82.2164 145° Southeast  Level FlightAware Approximate
11:37AM 52.7072 -82.1719 145° Southeast  Level FlightAware Approximate
11:38AM 52.6689 -82.1275 145° Southeast  Level FlightAware Approximate
11:39AM 52.6306 -82.0832 145° Southeast  Level FlightAware Approximate
11:40AM 52.5923 -82.0390 145° Southeast  Level FlightAware Approximate
11:41AM 52.5540 -81.9948 145° Southeast  Level FlightAware Approximate
11:42AM 52.5157 -81.9507 145° Southeast  Level FlightAware Approximate
11:43AM 52.4773 -81.9067 145° Southeast  Level FlightAware Approximate
11:44AM 52.4390 -81.8628 145° Southeast  Level FlightAware Approximate
11:45AM 52.4006 -81.8189 145° Southeast  Level FlightAware Approximate
11:46AM 52.3622 -81.7752 145° Southeast  Level FlightAware Approximate
11:47AM 52.3238 -81.7315 145° Southeast  Level FlightAware Approximate
11:48AM 52.2854 -81.6879 145° Southeast  Level FlightAware Approximate
11:49AM 52.2462 -81.6461 148° Southeast  Level FlightAware Approximate
11:50AM 52.2063 -81.6062 148° Southeast  Level FlightAware Approximate
11:51AM 52.1670 -81.5648 145° Southeast  Level FlightAware Approximate
11:52AM 52.1286 -81.5214 145° Southeast  Level FlightAware Approximate
11:53AM 52.0901 -81.4780 145° Southeast  Level FlightAware Approximate
11:54AM 52.0517 -81.4347 145° Southeast  Level FlightAware Approximate
11:55AM 52.0132 -81.3915 145° Southeast  Level FlightAware Approximate
11:56AM 51.9747 -81.3483 145° Southeast  Level FlightAware Approximate
11:57AM 51.9362 -81.3052 145° Southeast  Level FlightAware Approximate
11:58AM 51.8977 -81.2622 145° Southeast  Level FlightAware Approximate
11:59AM 51.8591 -81.2193 145° Southeast  Level FlightAware Approximate
12:00PM 51.8205 -81.1764 145° Southeast  Level FlightAware Approximate
12:01PM 51.7820 -81.1336 146° Southeast  Level FlightAware Approximate
12:02PM 51.7435 -81.0906 145° Southeast  Level FlightAware Approximate
12:03PM 51.7052 -81.0473 145° Southeast  Level FlightAware Approximate
12:04PM 51.6668 -81.0042 145° Southeast  Level FlightAware Approximate
12:05PM 51.6282 -80.9615 148° Southeast  Level FlightAware Approximate
12:06PM 51.5885 -80.9218 148° Southeast  Level FlightAware Approximate
12:07PM 51.5488 -80.8821 148° Southeast  Level FlightAware Approximate
12:08PM 51.5090 -80.8423 148° Southeast  Level FlightAware Approximate
12:09PM 51.4693 -80.8027 148° Southeast  Level FlightAware Approximate
12:10PM 51.4296 -80.7629 148° Southeast  Level FlightAware Approximate
12:11PM 51.3918 -80.7189 142° Southeast  Level FlightAware Approximate
12:12PM 51.3549 -80.6728 142° Southeast  Level FlightAware Approximate
12:13PM 51.3157 -80.6323 148° Southeast  Level FlightAware Approximate
12:14PM 51.2911 -80.6078 148° Southeast  Level Estimated
12:15PM 51.2911 -80.6078 148° Southeast  Level Estimated
12:16PM 51.2911 -80.6078 148° Southeast  Level Estimated
12:17PM 51.2911 -80.6078 148° Southeast  Level Estimated
12:18PM 51.2911 -80.6078 148° Southeast  Level Estimated
12:19PM 51.2911 -80.6078 148° Southeast  Level Estimated
12:20PM 51.2911 -80.6078 148° Southeast  Level Estimated
12:21PM 51.2911 -80.6078 148° Southeast  Level Estimated
12:22PM 51.2911 -80.6078 148° Southeast  Level Estimated
12:23PM 51.2911 -80.6078 148° Southeast  Level Estimated
12:24PM 51.2911 -80.6078 148° Southeast  Level Estimated
12:25PM 51.2911 -80.6078 148° Southeast  Level Estimated
12:26PM 51.2911 -80.6078 148° Southeast  Level Estimated
12:27PM 51.2911 -80.6078 148° Southeast  Level Estimated
12:28PM 51.2911 -80.6078 148° Southeast  Level Estimated
12:29PM 51.2911 -80.6078 148° Southeast  Level Estimated